Idre Storbo, Sweden

12:48 PM CEST on August 24, 2016 (GMT +0200)
Tjonnodden, 2446 Elga, Engedal, Norway | | Change Station

Elev 2218 ft 62.16 °N, 11.90 °E | Updated 37 seconds ago

Mostly Cloudy
Mostly Cloudy
58.6 °F
Feels Like 58.6 °F
N
0.0
Wind Variable Wind from SSE
Gusts 0.0 mph

Today
High -- | Low -- °F
--% Chance of Precip.
Yesterday
High -- | Low -- °F
Precip. -- in
Pressure 30.15 in
Visibility 6.2 miles
Clouds Few 3200 ft
Mostly Cloudy 8000 ft
Dew Point 49 °F
Humidity 71%
Rainfall 0.00 in
Snow Depth Not available.
5:40 AM 8:43 PM
Waning Gibbous, 58% visible
METAR ENRO 241020Z VRB01KT 9999 FEW032 BKN080 14/11 Q1021
Pressure 30.15 in
Visibility 6.2 miles
Clouds Few 3200 ft
Mostly Cloudy 8000 ft
Dew Point 49 °F
Humidity 71%
Rainfall 0.00 in
Snow Depth Not available.
5:40 AM 8:43 PM
Waning Gibbous, 58% visible
METAR ENRO 241020Z VRB01KT 9999 FEW032 BKN080 14/11 Q1021

10-Day Weather Forecast

×

Almanac

Astronomy

Aug. 24, 2016 Rise Set
Actual Time
Civil Twilight
Nautical Twilight
Astronomical Twilight
Moon
Length of Visible Light
Length of Day
Tomorrow will be .
, % of the Moon is Illuminated

Today's Extremes

Country Highs Country Lows

Community

WunderPhotos

Upload Photos

1,934,562 photos uploaded!

WunderBlog® & News

Nearby

Air Quality

  Air Quality AQ Index Pollutant
Not available.

Snow Depth

Station Depth Elevation

Earthquake Activity

City Distance Mag. Time & Date
Minimum magnitude displayed is 2.5.

Coastal Water Temperatures

Place Temperature

Stations

Nearby Weather Stations

Station Location Temp. Windchill Dew Point Humidity Wind Precip. Elev Updated Type